Time;durP1;ratioP1;P1;durP2;ratioP2;P2;SDS_P1;SDS_P2;PMS_P1;PMS_P2;Temp;Humidity;BMP_temperature;BMP_pressure;BME280_temperature;BME280_humidity;BME280_pressure;Samples;Min_cycle;Max_cycle;Signal;HPM_P1;HPM_P2
2022/09/26 00:01:35;;;;;;;10.68;5.22;;;;;;;14.05;74.25;98745.92;1663769;86;20991;-75
2022/09/26 00:04:25;;;;;;;10.25;5.28;;;;;;;14.06;74.63;98735.84;1666619;84;21050;-77
2022/09/26 00:06:55;;;;;;;12.65;5.37;;;;;;;14.09;74.61;98737.86;1667179;86;21565;-78
2022/09/26 00:09:25;;;;;;;11.18;5.33;;;;;;;14.12;74.51;98731.20;1672648;85;20997;-78
2022/09/26 00:11:53;;;;;;;12.13;5.50;;;;;;;14.21;74.76;98738.23;1661104;85;20984;-76
2022/09/26 00:14:25;;;;;;;10.58;4.90;;;;;;;14.26;74.15;98733.16;1613392;88;21050;-76
2022/09/26 00:16:53;;;;;;;10.65;5.33;;;;;;;14.29;73.96;98730.88;1627405;87;21069;-78
2022/09/26 00:19:22;;;;;;;15.13;5.65;;;;;;;14.35;74.17;98716.22;1627195;88;21014;-76
2022/09/26 00:21:49;;;;;;;13.20;5.37;;;;;;;14.36;73.66;98713.13;1629184;87;21066;-77
2022/09/26 00:24:17;;;;;;;10.20;6.00;;;;;;;14.36;73.98;98706.59;1622601;88;21030;-77
2022/09/26 00:26:44;;;;;;;7.83;5.03;;;;;;;14.37;73.98;98708.30;1616802;88;21031;-77
2022/09/26 00:29:12;;;;;;;10.93;6.03;;;;;;;14.39;74.37;98712.53;1654886;86;20996;-77
2022/09/26 00:31:44;;;;;;;11.55;5.45;;;;;;;14.42;74.23;98705.84;1655288;86;21005;-77
2022/09/26 00:34:15;;;;;;;11.05;6.53;;;;;;;14.45;74.50;98705.70;1640329;87;21053;-76
2022/09/26 00:36:42;;;;;;;15.10;7.03;;;;;;;14.47;75.10;98706.95;1637161;87;21080;-76
2022/09/26 00:39:13;;;;;;;16.17;7.00;;;;;;;14.48;74.73;98708.62;1640630;86;20926;-77
2022/09/26 00:41:41;;;;;;;19.35;7.12;;;;;;;14.45;75.01;98704.87;1672410;85;20974;-76
2022/09/26 00:44:47;;;;;;;13.40;6.40;;;;;;;14.44;75.10;98694.00;1634317;87;20986;-79
2022/09/26 00:47:35;;;;;;;16.27;7.08;;;;;;;14.42;75.49;98700.61;1662620;86;20986;-80
2022/09/26 00:50:17;;;;;;;15.48;6.65;;;;;;;14.44;76.20;98703.16;1642511;87;21108;-76
2022/09/26 00:53:05;;;;;;;13.78;5.92;;;;;;;14.44;76.14;98704.47;1662558;86;21011;-78
2022/09/26 00:55:37;;;;;;;14.55;7.12;;;;;;;14.44;75.80;98705.77;1644076;87;21002;-80
2022/09/26 00:58:25;;;;;;;17.05;7.22;;;;;;;14.36;75.65;98702.67;1625724;86;20973;-77
2022/09/26 01:00:54;;;;;;;12.98;6.55;;;;;;;14.37;76.59;98700.46;1643754;87;21060;-77
2022/09/26 01:03:24;;;;;;;16.45;6.55;;;;;;;14.37;76.34;98704.38;1637152;86;21544;-76
2022/09/26 01:05:53;;;;;;;17.37;7.22;;;;;;;14.35;76.29;98707.06;1636921;87;21024;-77
2022/09/26 01:08:28;;;;;;;12.70;6.70;;;;;;;14.29;76.17;98705.58;1638574;87;21012;-76
2022/09/26 01:10:58;;;;;;;13.72;6.67;;;;;;;14.28;76.05;98703.90;1644057;86;21009;-79
2022/09/26 01:13:27;;;;;;;11.55;6.40;;;;;;;14.28;75.32;98705.20;1637658;87;21013;-77
2022/09/26 01:15:55;;;;;;;11.75;7.12;;;;;;;14.24;76.70;98699.70;1636091;87;21041;-78
2022/09/26 01:18:22;;;;;;;11.38;6.60;;;;;;;14.28;76.57;98700.41;1637380;87;21080;-78
2022/09/26 01:21:04;;;;;;;15.05;6.62;;;;;;;14.30;76.40;98698.57;1636314;87;21552;-79
2022/09/26 01:24:02;;;;;;;12.73;6.45;;;;;;;14.34;77.01;98701.43;1637411;87;21581;-76
2022/09/26 01:26:58;;;;;;;14.85;6.50;;;;;;;14.36;76.43;98697.44;1683810;85;21509;-78
2022/09/26 01:30:07;;;;;;;12.15;6.22;;;;;;;14.35;76.20;98698.37;1684284;85;21001;-76
2022/09/26 01:33:14;;;;;;;11.78;6.17;;;;;;;14.37;76.22;98692.15;1675143;85;21014;-77
2022/09/26 01:36:08;;;;;;;17.48;6.95;;;;;;;14.41;76.70;98694.16;1678450;85;21022;-76
2022/09/26 01:39:02;;;;;;;13.55;6.70;;;;;;;14.41;76.21;98684.54;1683291;85;21014;-77
2022/09/26 01:42:09;;;;;;;14.25;6.75;;;;;;;14.42;76.35;98686.22;1646227;85;21638;-77
2022/09/26 01:44:54;;;;;;;11.95;6.20;;;;;;;14.45;76.60;98683.48;1665774;84;21516;-77
2022/09/26 01:47:52;;;;;;;14.75;7.37;;;;;;;14.47;76.53;98679.48;1671552;85;21021;-77
2022/09/26 01:50:40;;;;;;;12.53;6.75;;;;;;;14.49;76.52;98678.48;1669676;85;21029;-77
2022/09/26 01:53:16;;;;;;;14.07;7.00;;;;;;;14.38;75.93;98674.21;1682439;85;21005;-78
2022/09/26 01:56:06;;;;;;;13.22;6.47;;;;;;;14.40;75.89;98680.69;1682103;85;21041;-76
2022/09/26 01:58:43;;;;;;;14.47;7.30;;;;;;;14.38;75.54;98682.52;1683574;85;21021;-77
2022/09/26 02:01:14;;;;;;;10.72;6.33;;;;;;;14.37;75.63;98679.07;1688350;84;20976;-77
2022/09/26 02:03:49;;;;;;;14.18;6.97;;;;;;;14.33;75.16;98678.36;1681467;84;21093;-76
2022/09/26 02:06:40;;;;;;;14.55;6.65;;;;;;;14.30;75.47;98676.34;1685034;85;21010;-76
2022/09/26 02:09:13;;;;;;;13.83;6.78;;;;;;;14.30;75.84;98672.42;1683055;85;21048;-78
2022/09/26 02:11:45;;;;;;;11.85;6.60;;;;;;;14.32;76.38;98659.69;1660503;85;21054;-77
2022/09/26 02:14:27;;;;;;;14.25;6.55;;;;;;;14.34;76.55;98664.81;1680487;85;21029;-77
2022/09/26 02:17:00;;;;;;;18.00;7.50;;;;;;;14.39;76.73;98669.86;1666166;85;20982;-76
2022/09/26 02:19:32;;;;;;;18.52;7.40;;;;;;;14.42;76.56;98674.45;1679631;85;20966;-77
2022/09/26 02:22:00;;;;;;;13.22;7.12;;;;;;;14.42;76.25;98679.69;1676739;85;21581;-76
2022/09/26 02:24:28;;;;;;;14.10;7.10;;;;;;;14.39;75.95;98670.69;1682174;85;21013;-77
2022/09/26 02:26:57;;;;;;;13.03;6.12;;;;;;;14.37;75.42;98663.38;1665319;86;20995;-77
2022/09/26 02:29:26;;;;;;;15.10;7.70;;;;;;;14.36;75.71;98656.44;1662362;86;21011;-77
2022/09/26 02:32:02;;;;;;;15.25;6.83;;;;;;;14.39;76.13;98660.23;1665970;86;21031;-79
2022/09/26 02:34:29;;;;;;;16.87;7.55;;;;;;;14.39;76.09;98653.70;1673247;85;22069;-77
2022/09/26 02:36:59;;;;;;;16.87;6.75;;;;;;;14.41;76.20;98658.39;1677606;85;21446;-76
2022/09/26 02:39:29;;;;;;;20.08;6.65;;;;;;;14.38;75.43;98641.52;1655415;85;21079;-77
2022/09/26 02:42:27;;;;;;;10.45;6.00;;;;;;;14.34;75.15;98641.28;1610379;88;21054;-76
2022/09/26 02:45:33;;;;;;;14.85;6.42;;;;;;;14.26;75.53;98640.34;1625548;87;21514;-77
2022/09/26 02:48:12;;;;;;;14.45;6.72;;;;;;;14.20;75.54;98650.25;1615494;88;21022;-77
2022/09/26 02:51:01;;;;;;;18.00;6.40;;;;;;;14.17;75.33;98643.87;1628955;88;21026;-77
2022/09/26 02:54:10;;;;;;;11.38;6.50;;;;;;;14.10;75.64;98633.67;1612122;87;21002;-78
2022/09/26 02:57:23;;;;;;;14.30;6.37;;;;;;;14.08;75.33;98625.06;1631701;88;21009;-77
2022/09/26 03:00:17;;;;;;;12.82;6.80;;;;;;;13.95;75.84;98630.49;1633573;87;21014;-77
2022/09/26 03:03:14;;;;;;;13.03;6.15;;;;;;;13.97;76.26;98637.80;1628665;87;21567;-77
2022/09/26 03:05:45;;;;;;;14.85;6.55;;;;;;;13.98;76.27;98634.25;1635981;86;21062;-76
2022/09/26 03:08:24;;;;;;;13.03;6.83;;;;;;;13.97;76.47;98607.75;1671812;86;21466;-76
2022/09/26 03:10:55;;;;;;;11.55;5.62;;;;;;;13.95;76.47;98604.80;1663427;85;21031;-77
2022/09/26 03:13:24;;;;;;;10.68;5.70;;;;;;;13.87;76.51;98598.18;1658526;86;20955;-76
2022/09/26 03:15:55;;;;;;;10.30;5.62;;;;;;;13.88;76.62;98599.02;1665272;86;21514;-77
2022/09/26 03:18:30;;;;;;;10.20;5.42;;;;;;;13.88;76.53;98606.39;1668392;86;21010;-76
2022/09/26 03:20:58;;;;;;;10.45;5.80;;;;;;;13.87;76.56;98605.18;1676922;85;21005;-77
2022/09/26 03:23:27;;;;;;;13.30;5.58;;;;;;;13.88;77.09;98597.71;1687372;85;20977;-77
2022/09/26 03:26:10;;;;;;;9.60;5.72;;;;;;;13.90;77.46;98603.25;1682757;85;21005;-76
2022/09/26 03:28:37;;;;;;;11.05;6.05;;;;;;;13.91;76.73;98603.65;1664039;85;21002;-76
2022/09/26 03:31:06;;;;;;;14.78;6.03;;;;;;;13.93;76.98;98601.81;1679701;85;21060;-80
2022/09/26 03:33:36;;;;;;;12.13;6.00;;;;;;;13.91;77.74;98591.89;1688005;85;20993;-77
2022/09/26 03:36:06;;;;;;;11.95;6.15;;;;;;;13.91;77.36;98582.74;1665982;82;21097;-79
2022/09/26 03:38:33;;;;;;;10.10;6.10;;;;;;;13.93;77.79;98580.91;1665818;86;21026;-79
2022/09/26 03:41:03;;;;;;;12.18;6.47;;;;;;;13.93;76.62;98583.98;1651140;86;21031;-77
2022/09/26 03:43:50;;;;;;;11.57;5.60;;;;;;;13.90;76.65;98591.48;1648418;86;21018;-79
2022/09/26 03:46:18;;;;;;;12.03;5.17;;;;;;;13.85;77.60;98586.11;1662522;86;21031;-78
2022/09/26 03:48:45;;;;;;;10.05;5.42;;;;;;;13.82;77.88;98583.63;1663623;85;20969;-78
2022/09/26 03:51:13;;;;;;;9.63;4.75;;;;;;;13.80;77.72;98585.00;1621069;88;20995;-76
2022/09/26 03:53:46;;;;;;;13.05;5.65;;;;;;;13.82;77.25;98587.55;1624852;87;21043;-76
2022/09/26 03:56:17;;;;;;;10.25;5.42;;;;;;;13.79;77.75;98586.41;1627662;88;21034;-77
2022/09/26 03:58:47;;;;;;;12.53;5.67;;;;;;;13.77;77.42;98586.90;1627841;87;20987;-77
2022/09/26 04:01:20;;;;;;;12.28;5.80;;;;;;;13.77;77.53;98586.90;1626896;88;20998;-78
2022/09/26 04:03:49;;;;;;;9.15;5.80;;;;;;;13.80;77.81;98585.47;1610697;88;21688;-78
2022/09/26 04:06:18;;;;;;;11.25;5.28;;;;;;;13.80;77.63;98581.08;1680508;85;21077;-79
2022/09/26 04:08:49;;;;;;;9.80;5.97;;;;;;;13.85;78.15;98579.11;1657291;85;21492;-79
2022/09/26 04:11:21;;;;;;;11.68;5.70;;;;;;;13.87;77.73;98572.05;1668033;86;21018;-78
2022/09/26 04:13:50;;;;;;;9.83;5.03;;;;;;;13.88;77.98;98562.44;1661770;85;20982;-76
2022/09/26 04:16:19;;;;;;;11.00;5.58;;;;;;;13.93;78.06;98557.86;1671611;86;21498;-78
2022/09/26 04:18:48;;;;;;;13.43;5.78;;;;;;;13.95;77.70;98557.75;1662463;86;20994;-76
2022/09/26 04:21:16;;;;;;;15.05;5.75;;;;;;;13.89;77.37;98561.06;1650943;86;20999;-77
2022/09/26 04:23:44;;;;;;;16.00;6.28;;;;;;;13.88;77.98;98554.59;1664238;85;21030;-78
2022/09/26 04:26:16;;;;;;;13.35;6.55;;;;;;;13.91;78.17;98551.86;1628387;87;21019;-80
2022/09/26 04:28:45;;;;;;;15.78;6.70;;;;;;;13.92;78.06;98558.30;1647803;86;21520;-77
2022/09/26 04:31:13;;;;;;;16.42;7.62;;;;;;;13.93;77.97;98560.47;1649616;87;20997;-77
2022/09/26 04:33:42;;;;;;;17.52;9.25;;;;;;;13.88;78.41;98565.89;1647657;87;20996;-76
2022/09/26 04:36:15;;;;;;;14.18;7.67;;;;;;;13.87;78.05;98570.75;1648127;87;21029;-76
2022/09/26 04:38:43;;;;;;;16.37;6.37;;;;;;;13.82;79.37;98566.18;1673808;85;20934;-78
2022/09/26 04:41:17;;;;;;;12.00;6.25;;;;;;;13.79;78.17;98558.97;1680453;85;21477;-76
2022/09/26 04:43:46;;;;;;;11.60;5.37;;;;;;;13.80;78.40;98555.42;1680070;85;20973;-76
2022/09/26 04:46:21;;;;;;;18.57;6.37;;;;;;;13.83;78.30;98552.68;1655234;85;21220;-78
2022/09/26 04:48:51;;;;;;;13.35;5.28;;;;;;;13.86;78.16;98552.52;1650054;86;21012;-76
2022/09/26 04:51:23;;;;;;;9.88;4.58;;;;;;;13.93;78.10;98539.56;1644784;87;21004;-77
2022/09/26 04:53:51;;;;;;;16.12;5.75;;;;;;;13.88;77.36;98537.14;1646983;87;21482;-76
2022/09/26 04:56:23;;;;;;;10.30;5.40;;;;;;;13.84;77.47;98541.30;1645117;87;21064;-77
2022/09/26 04:58:53;;;;;;;10.48;5.22;;;;;;;13.80;77.47;98543.20;1635767;88;20998;-76
2022/09/26 05:01:21;;;;;;;13.83;4.67;;;;;;;13.78;77.49;98537.20;1634399;88;21014;-79
2022/09/26 05:03:57;;;;;;;10.88;4.70;;;;;;;13.80;77.78;98533.22;1627485;88;21122;-78
2022/09/26 05:06:25;;;;;;;13.65;5.42;;;;;;;13.83;77.59;98528.70;1631837;87;21022;-77
2022/09/26 05:08:53;;;;;;;11.85;4.97;;;;;;;13.84;77.72;98531.68;1630412;88;21058;-78
2022/09/26 05:11:23;;;;;;;11.57;5.15;;;;;;;13.84;77.50;98535.60;1630224;87;21082;-78
2022/09/26 05:13:51;;;;;;;15.80;5.95;;;;;;;13.85;77.44;98529.47;1632458;88;21010;-79
2022/09/26 05:16:18;;;;;;;15.68;4.92;;;;;;;13.89;77.67;98530.18;1630166;88;21023;-76
2022/09/26 05:18:54;;;;;;;25.32;10.95;;;;;;;13.93;77.74;98540.87;1611184;88;21037;-77
2022/09/26 05:21:22;;;;;;;12.58;6.22;;;;;;;13.97;77.54;98538.97;1630921;87;21067;-76
2022/09/26 05:26:43;;;;;;;13.22;5.40;;;;;;;14.12;77.47;98539.51;1628210;87;21006;-77
2022/09/26 05:29:11;;;;;;;10.90;5.20;;;;;;;14.22;77.44;98526.38;1613106;88;21066;-77
2022/09/26 05:31:42;;;;;;;17.37;5.58;;;;;;;14.31;77.07;98531.63;1627623;87;21565;-77
2022/09/26 05:34:11;;;;;;;14.53;6.05;;;;;;;14.37;77.07;98525.26;1622354;88;21034;-77
2022/09/26 05:36:41;;;;;;;13.15;5.83;;;;;;;14.43;77.22;98515.33;1674278;85;20981;-77
2022/09/26 05:40:55;;;;;;;16.30;6.60;;;;;;;14.48;77.77;98516.39;1629674;88;21551;-77
2022/09/26 05:41:38;;;;;;;13.85;6.37;;;;;;;14.56;77.68;98525.16;1653700;86;21039;-76
2022/09/26 05:44:06;;;;;;;15.40;6.70;;;;;;;14.59;77.78;98528.52;1659607;86;21030;-76
2022/09/26 05:46:36;;;;;;;12.80;6.03;;;;;;;14.63;77.90;98533.97;1653327;86;21070;-78
2022/09/26 05:49:05;;;;;;;17.42;6.70;;;;;;;14.67;77.18;98539.42;1663491;86;21550;-78
2022/09/26 05:51:32;;;;;;;16.35;6.65;;;;;;;14.69;77.38;98534.97;1663569;86;21066;-78
2022/09/26 05:54:01;;;;;;;10.20;4.92;;;;;;;14.65;77.36;98530.81;1664386;84;21588;-77
2022/09/26 05:56:29;;;;;;;14.28;5.65;;;;;;;14.64;76.85;98525.21;1667809;84;21010;-78
2022/09/26 05:58:59;;;;;;;11.63;5.50;;;;;;;14.59;76.83;98504.12;1661867;84;21035;-79
2022/09/26 06:01:32;;;;;;;13.03;4.85;;;;;;;14.61;76.81;98512.74;1664740;84;21073;-77
2022/09/26 06:04:02;;;;;;;12.75;5.33;;;;;;;14.66;76.46;98515.95;1668246;84;21572;-77
2022/09/26 06:06:30;;;;;;;11.03;5.12;;;;;;;14.71;76.00;98511.34;1640320;84;21613;-79
2022/09/26 06:08:59;;;;;;;8.38;4.85;;;;;;;14.79;75.87;98505.25;1662623;84;21094;-79
2022/09/26 06:11:45;;;;;;;9.25;4.95;;;;;;;14.78;75.89;98511.42;1666530;84;21058;-82
2022/09/26 06:14:13;;;;;;;16.52;7.95;;;;;;;14.79;75.95;98506.56;1666916;84;21545;-77
2022/09/26 06:16:40;;;;;;;11.48;5.70;;;;;;;14.85;75.93;98519.33;1668186;83;21504;-79
2022/09/26 06:19:08;;;;;;;13.13;5.92;;;;;;;14.94;75.84;98525.00;1663128;86;21117;-78
2022/09/26 06:21:39;;;;;;;11.63;5.72;;;;;;;14.97;75.41;98519.62;1647497;85;21022;-79
2022/09/26 06:24:08;;;;;;;9.48;5.47;;;;;;;15.02;75.33;98512.36;1665718;84;21428;-77
2022/09/26 06:26:36;;;;;;;11.90;5.58;;;;;;;15.05;75.13;98500.43;1666476;84;21081;-77
2022/09/26 06:29:06;;;;;;;13.43;6.08;;;;;;;15.13;75.37;98496.94;1668930;85;21005;-79
2022/09/26 06:31:35;;;;;;;14.75;7.05;;;;;;;15.25;75.13;98505.44;1665497;86;21020;-78
2022/09/26 06:34:07;;;;;;;14.30;6.03;;;;;;;15.36;74.94;98513.19;1641438;86;21674;-77
2022/09/26 06:36:38;;;;;;;11.30;6.22;;;;;;;15.41;74.20;98506.77;1661065;86;21025;-78
2022/09/26 06:39:06;;;;;;;23.85;6.35;;;;;;;15.46;74.48;98502.14;1671619;84;21530;-79
2022/09/26 06:41:42;;;;;;;16.67;6.50;;;;;;;15.58;74.45;98500.63;1661351;86;21573;-77
2022/09/26 06:44:11;;;;;;;20.30;6.42;;;;;;;15.59;74.42;98491.82;1661700;86;21065;-77
2022/09/26 06:46:49;;;;;;;9.20;5.97;;;;;;;15.63;74.32;98492.03;1661693;86;21000;-78
2022/09/26 06:49:19;;;;;;;13.00;6.10;;;;;;;15.72;74.20;98489.38;1664406;84;21518;-77
2022/09/26 06:51:48;;;;;;;16.73;6.65;;;;;;;15.77;74.06;98487.84;1634199;86;20995;-79
2022/09/26 06:54:17;;;;;;;18.00;7.10;;;;;;;15.89;73.69;98501.08;1667133;86;21002;-79
2022/09/26 06:56:45;;;;;;;15.15;6.37;;;;;;;15.95;73.75;98502.52;1660793;86;21061;-78
2022/09/26 06:59:15;;;;;;;19.15;6.70;;;;;;;15.99;73.47;98489.62;1658221;85;21044;-76
2022/09/26 07:01:46;;;;;;;17.42;7.20;;;;;;;16.06;73.36;98498.00;1666411;86;21062;-78
2022/09/26 07:04:16;;;;;;;22.17;7.28;;;;;;;16.12;73.28;98504.67;1662690;86;21057;-79
2022/09/26 07:06:54;;;;;;;14.10;5.80;;;;;;;16.23;73.11;98501.78;1667098;86;21062;-76
2022/09/26 07:09:22;;;;;;;12.33;5.75;;;;;;;16.33;72.64;98498.64;1671018;86;21517;-79
2022/09/26 07:11:54;;;;;;;13.73;5.47;;;;;;;16.39;72.30;98496.50;1667686;86;21613;-79
2022/09/26 07:14:22;;;;;;;8.75;5.22;;;;;;;16.40;72.12;98494.27;1666950;86;21494;-79
2022/09/26 07:16:52;;;;;;;10.60;5.58;;;;;;;16.49;71.67;98483.23;1665537;86;21018;-79
2022/09/26 07:19:21;;;;;;;16.50;5.25;;;;;;;16.59;71.29;98480.92;1666564;86;21056;-76
2022/09/26 07:22:06;;;;;;;55.88;25.12;;;;;;;16.68;70.43;98473.79;1671754;86;21133;-78
2022/09/26 07:24:36;;;;;;;12.05;6.28;;;;;;;16.80;70.35;98472.69;1668023;86;20986;-80
2022/09/26 07:27:04;;;;;;;10.40;5.42;;;;;;;16.87;70.54;98467.00;1672060;86;21105;-81
2022/09/26 07:29:31;;;;;;;17.35;5.90;;;;;;;16.97;69.05;98455.92;1670064;85;21170;-78
2022/09/26 07:31:59;;;;;;;10.13;5.58;;;;;;;17.07;70.02;98443.94;1671392;86;21010;-76
2022/09/26 07:34:39;;;;;;;11.30;4.72;;;;;;;17.18;69.50;98440.15;1672162;84;21034;-77
2022/09/26 07:37:07;;;;;;;13.48;6.10;;;;;;;17.29;68.15;98434.24;1658301;85;20980;-77
2022/09/26 07:39:35;;;;;;;10.58;5.35;;;;;;;17.41;68.69;98428.69;1670849;85;20970;-79
2022/09/26 07:42:03;;;;;;;9.28;4.65;;;;;;;17.49;68.93;98425.09;1669823;86;20969;-77
2022/09/26 07:44:31;;;;;;;7.55;4.65;;;;;;;17.59;68.46;98414.36;1673063;86;21013;-80
2022/09/26 07:52:50;;;;;;;19.02;7.70;;;;;;;17.85;67.38;98396.07;1631056;87;21118;-79
2022/09/26 07:55:26;;;;;;;11.50;7.20;;;;;;;17.99;67.81;98395.99;1626680;86;21002;-76
2022/09/26 07:58:05;;;;;;;13.13;5.30;;;;;;;18.15;67.74;98397.61;1654675;85;20968;-78
2022/09/26 08:00:41;;;;;;;12.33;5.60;;;;;;;18.33;67.50;98404.24;1634895;86;21012;-82
2022/09/26 08:03:19;;;;;;;15.93;5.28;;;;;;;18.55;67.50;98418.09;1672983;86;21140;-80
2022/09/26 08:05:50;;;;;;;11.78;4.28;;;;;;;18.73;66.52;98430.46;1651282;85;20975;-79
2022/09/26 08:08:17;;;;;;;8.23;3.90;;;;;;;18.87;64.60;98443.54;1676482;83;20959;-81
2022/09/26 08:11:00;;;;;;;10.50;4.55;;;;;;;19.02;64.39;98439.01;1675616;86;20969;-81
2022/09/26 08:13:48;;;;;;;27.40;4.70;;;;;;;19.21;64.81;98439.85;1672987;85;21573;-80
2022/09/26 08:16:38;;;;;;;12.10;4.00;;;;;;;19.32;63.48;98439.11;1673575;86;22075;-80
2022/09/26 08:19:04;;;;;;;12.15;4.33;;;;;;;19.52;63.71;98436.36;1651799;86;21077;-79
2022/09/26 08:21:32;;;;;;;10.15;4.30;;;;;;;19.65;62.35;98417.34;1672904;86;21058;-79
2022/09/26 08:24:01;;;;;;;9.83;4.03;;;;;;;19.75;61.75;98418.88;1660609;85;20969;-80
2022/09/26 08:26:48;;;;;;;8.33;4.10;;;;;;;19.81;61.17;98422.86;1665902;86;21066;-81
2022/09/26 08:29:22;;;;;;;7.70;3.47;;;;;;;19.86;61.96;98419.41;1667516;86;21022;-80
2022/09/26 08:31:52;;;;;;;7.33;3.87;;;;;;;19.94;61.12;98423.64;1671019;86;21510;-80
2022/09/26 08:34:20;;;;;;;10.88;4.50;;;;;;;20.06;61.20;98420.08;1669716;86;21081;-80
2022/09/26 08:36:52;;;;;;;9.65;3.72;;;;;;;20.16;59.29;98404.89;1671163;85;21022;-80
2022/09/26 08:39:22;;;;;;;9.10;3.67;;;;;;;20.15;60.68;98400.06;1656319;86;21639;-82
2022/09/26 08:42:36;;;;;;;8.33;3.60;;;;;;;20.14;59.92;98401.04;1668599;86;20982;-79
2022/09/26 08:48:38;;;;;;;8.50;3.42;;;;;;;20.27;60.02;98400.94;1633946;84;21119;-82
2022/09/26 08:51:31;;;;;;;10.70;3.58;;;;;;;20.38;59.80;98394.86;1670519;84;21552;-79
2022/09/26 08:54:14;;;;;;;13.38;5.37;;;;;;;20.46;58.49;98397.75;1670456;84;21014;-80
2022/09/26 08:56:53;;;;;;;20.45;10.18;;;;;;;20.51;59.34;98388.14;1670288;86;21644;-80
2022/09/26 08:59:36;;;;;;;8.65;4.25;;;;;;;20.60;59.32;98394.91;1667060;86;21522;-78
2022/09/26 09:02:29;;;;;;;8.40;4.03;;;;;;;20.74;58.60;98393.00;1671628;84;21026;-80
2022/09/26 09:05:12;;;;;;;16.52;3.80;;;;;;;20.86;59.08;98384.11;1668132;84;21003;-78
2022/09/26 09:07:46;;;;;;;9.03;3.35;;;;;;;20.97;58.50;98385.44;1667421;84;21102;-82
2022/09/26 09:10:25;;;;;;;10.60;4.05;;;;;;;21.01;57.48;98366.22;1668391;84;21528;-78
2022/09/26 09:13:03;;;;;;;8.03;4.50;;;;;;;21.02;57.69;98357.31;1669315;84;21049;-79
2022/09/26 09:16:05;;;;;;;7.85;3.50;;;;;;;21.12;57.68;98366.18;1672583;84;21099;-77
2022/09/26 09:18:57;;;;;;;6.90;3.92;;;;;;;21.28;57.75;98367.59;1660811;84;21061;-78
2022/09/26 09:21:59;;;;;;;8.78;3.85;;;;;;;21.39;57.56;98353.04;1608644;88;21111;-80
2022/09/26 09:24:55;;;;;;;8.30;3.95;;;;;;;21.52;57.07;98358.19;1605967;88;20992;-80
2022/09/26 09:28:02;;;;;;;9.88;3.90;;;;;;;21.57;56.65;98354.20;1643715;84;21612;-79
2022/09/26 09:30:51;;;;;;;8.18;3.98;;;;;;;21.67;56.42;98352.13;1667839;86;21577;-80
2022/09/26 09:33:46;;;;;;;11.30;3.50;;;;;;;21.74;56.30;98352.79;1666103;84;21029;-80
2022/09/26 09:36:43;;;;;;;7.33;3.52;;;;;;;21.93;55.97;98358.73;1669851;84;21006;-80
2022/09/26 09:39:41;;;;;;;14.20;4.05;;;;;;;22.08;54.15;98363.20;1666134;86;21366;-80
2022/09/26 09:42:28;;;;;;;7.37;3.50;;;;;;;22.16;54.55;98355.48;1667198;85;21018;-81
2022/09/26 09:45:13;;;;;;;8.13;3.30;;;;;;;22.17;52.97;98361.61;1666197;84;21002;-80
2022/09/26 09:47:40;;;;;;;5.08;2.98;;;;;;;22.24;53.79;98354.37;1649333;84;21609;-79
2022/09/26 09:50:43;;;;;;;6.25;3.55;;;;;;;22.29;52.18;98359.76;1653359;85;21192;-78
2022/09/26 09:53:48;;;;;;;12.58;4.00;;;;;;;22.37;53.35;98352.83;1643234;86;21018;-77
2022/09/26 09:56:33;;;;;;;8.10;3.60;;;;;;;22.54;53.25;98359.80;1626713;86;21014;-78
2022/09/26 09:59:15;;;;;;;6.97;3.60;;;;;;;22.66;52.54;98363.20;1670770;85;21022;-79
2022/09/26 10:01:53;;;;;;;10.25;3.20;;;;;;;22.83;52.19;98359.94;1664952;84;21116;-79
2022/09/26 10:04:43;;;;;;;7.45;3.20;;;;;;;22.96;52.24;98368.50;1666309;86;20998;-79
2022/09/26 10:07:11;;;;;;;6.40;3.02;;;;;;;22.93;49.25;98365.27;1669272;86;21049;-79
2022/09/26 10:09:45;;;;;;;8.88;3.17;;;;;;;22.95;51.19;98357.53;1672571;85;21030;-78
2022/09/26 10:12:33;;;;;;;7.35;3.70;;;;;;;22.96;47.58;98358.36;1671099;86;21069;-79
2022/09/26 10:15:25;;;;;;;5.80;3.05;;;;;;;22.95;50.17;98353.55;1670814;86;21034;-80
2022/09/26 10:18:04;;;;;;;5.72;2.90;;;;;;;22.88;50.48;98350.25;1666228;86;21033;-80
2022/09/26 10:20:41;;;;;;;7.45;2.90;;;;;;;22.96;50.87;98350.41;1670280;86;21105;-79
2022/09/26 10:23:32;;;;;;;7.95;2.87;;;;;;;23.11;50.66;98355.72;1656391;85;21018;-78
2022/09/26 10:26:07;;;;;;;9.38;3.25;;;;;;;23.30;50.47;98348.30;1666206;86;21086;-80
2022/09/26 10:28:51;;;;;;;10.95;2.72;;;;;;;23.50;50.66;98352.31;1665673;85;21072;-80
2022/09/26 10:31:34;;;;;;;5.47;3.22;;;;;;;23.66;50.49;98346.45;1668138;86;21057;-80
2022/09/26 10:34:23;;;;;;;10.10;3.40;;;;;;;23.69;49.05;98340.35;1666282;86;20975;-80
2022/09/26 10:36:51;;;;;;;6.75;2.95;;;;;;;23.78;49.31;98348.84;1672179;86;21054;-80
2022/09/26 10:42:21;;;;;;;9.90;3.70;;;;;;;23.89;49.47;98335.89;1665753;86;21006;-81
2022/09/26 10:44:56;;;;;;;5.53;2.90;;;;;;;24.05;48.86;98326.02;1663099;86;21010;-79
2022/09/26 10:47:45;;;;;;;7.40;2.80;;;;;;;24.01;47.72;98322.84;1664899;86;21148;-80
2022/09/26 10:50:32;;;;;;;7.75;2.98;;;;;;;23.99;47.63;98323.94;1663157;86;21062;-79
2022/09/26 10:53:12;;;;;;;5.80;2.27;;;;;;;24.02;47.05;98321.84;1645086;84;21017;-80
2022/09/26 10:55:46;;;;;;;5.50;2.83;;;;;;;23.97;46.29;98320.12;1668014;84;21033;-80
2022/09/26 10:58:21;;;;;;;5.50;3.00;;;;;;;23.92;45.77;98313.56;1640635;86;21538;-80
2022/09/26 11:00:50;;;;;;;7.15;3.12;;;;;;;23.99;45.94;98325.27;1668562;86;20982;-79
2022/09/26 11:03:42;;;;;;;6.70;2.47;;;;;;;23.90;45.37;98324.31;1653189;86;20993;-79
2022/09/26 11:06:43;;;;;;;6.58;2.55;;;;;;;23.96;44.80;98334.36;1665860;84;21042;-79
2022/09/26 11:09:19;;;;;;;5.90;2.60;;;;;;;23.83;44.50;98351.06;1659161;85;21094;-80
2022/09/26 11:12:27;;;;;;;5.30;2.63;;;;;;;23.69;45.18;98334.22;1668733;86;21517;-77
2022/09/26 11:15:02;;;;;;;6.10;2.72;;;;;;;23.75;45.71;98321.21;1663590;86;21867;-80
2022/09/26 11:17:46;;;;;;;9.78;3.02;;;;;;;23.82;44.47;98314.90;1671308;85;20985;-80
2022/09/26 11:20:39;;;;;;;7.72;2.45;;;;;;;23.77;43.49;98307.34;1659610;86;21106;-81
2022/09/26 11:23:30;;;;;;;5.90;2.87;;;;;;;23.79;42.23;98301.91;1666180;86;21070;-79
2022/09/26 11:26:26;;;;;;;6.35;2.45;;;;;;;23.82;44.64;98281.73;1666862;86;21029;-82
2022/09/26 11:29:15;;;;;;;8.08;2.67;;;;;;;23.94;43.42;98287.72;1664929;85;21038;-79
2022/09/26 11:31:54;;;;;;;5.15;2.65;;;;;;;23.77;42.58;98272.84;1665608;85;21034;-79
2022/09/26 11:34:30;;;;;;;9.35;2.60;;;;;;;23.80;43.63;98272.57;1664939;86;21014;-81
2022/09/26 11:37:29;;;;;;;5.75;2.65;;;;;;;23.76;44.12;98283.09;1668853;86;21028;-79
2022/09/26 11:40:20;;;;;;;6.40;2.65;;;;;;;23.72;44.21;98276.40;1656688;86;21581;-81
2022/09/26 11:43:08;;;;;;;4.28;2.47;;;;;;;23.72;43.91;98268.44;1664792;86;21516;-80
2022/09/26 11:46:05;;;;;;;5.30;2.90;;;;;;;23.60;43.54;98266.42;1663079;86;21020;-81
2022/09/26 11:49:12;;;;;;;7.75;2.62;;;;;;;23.58;44.66;98267.05;1671499;84;21133;-80
2022/09/26 11:52:11;;;;;;;4.70;2.58;;;;;;;23.58;43.91;98265.73;1669064;86;20994;-78
2022/09/26 11:55:29;;;;;;;6.37;2.85;;;;;;;23.57;44.21;98270.67;1666927;86;21065;-81
2022/09/26 11:58:22;;;;;;;4.67;2.30;;;;;;;23.61;44.77;98265.43;1663398;86;20979;-79
2022/09/26 12:01:19;;;;;;;5.97;3.15;;;;;;;23.68;45.26;98259.59;1656091;86;21061;-81
2022/09/26 12:04:14;;;;;;;7.80;3.15;;;;;;;23.77;45.12;98251.61;1669850;86;21806;-80
2022/09/26 12:07:02;;;;;;;10.48;3.05;;;;;;;23.78;44.71;98255.95;1665763;85;21066;-79
2022/09/26 12:09:56;;;;;;;7.17;2.80;;;;;;;23.73;45.08;98259.98;1662774;84;21049;-81
2022/09/26 12:12:48;;;;;;;9.10;2.98;;;;;;;23.73;45.41;98259.98;1658580;86;21022;-82
2022/09/26 12:15:33;;;;;;;6.37;2.75;;;;;;;23.77;45.08;98258.25;1660302;86;20974;-80
2022/09/26 12:18:24;;;;;;;8.53;3.15;;;;;;;23.79;44.82;98261.59;1663139;86;21026;-79
2022/09/26 12:21:26;;;;;;;12.15;2.80;;;;;;;23.78;45.26;98251.97;1662482;85;21026;-81
2022/09/26 12:23:58;;;;;;;8.30;2.50;;;;;;;23.78;45.25;98248.00;1668787;86;20998;-83
2022/09/26 12:26:40;;;;;;;7.70;2.95;;;;;;;23.77;45.61;98244.12;1639484;86;21017;-80
2022/09/26 12:29:31;;;;;;;9.83;2.70;;;;;;;23.70;45.34;98232.42;1619677;87;21048;-82
2022/09/26 12:32:23;;;;;;;7.67;2.30;;;;;;;23.71;45.26;98234.08;1648919;85;21911;-79